sensor_id;sensor_type;location;lat;lon;timestamp;P1;durP1;ratioP1;P2;durP2;ratioP2
22531;SDS011;11432;46.924;7.114;2023-04-24T00:01:28;1.08;;;0.00;;
22531;SDS011;11432;46.924;7.114;2023-04-24T00:03:54;1.95;;;0.10;;
22531;SDS011;11432;46.924;7.114;2023-04-24T00:06:24;0.20;;;0.03;;
22531;SDS011;11432;46.924;7.114;2023-04-24T00:08:59;0.05;;;0.00;;
22531;SDS011;11432;46.924;7.114;2023-04-24T00:11:26;0.10;;;0.00;;
22531;SDS011;11432;46.924;7.114;2023-04-24T00:13:51;0.32;;;0.10;;
22531;SDS011;11432;46.924;7.114;2023-04-24T00:16:17;0.00;;;0.00;;
22531;SDS011;11432;46.924;7.114;2023-04-24T00:18:43;0.13;;;0.00;;
22531;SDS011;11432;46.924;7.114;2023-04-24T00:21:10;0.15;;;0.00;;
22531;SDS011;11432;46.924;7.114;2023-04-24T00:23:36;0.10;;;0.08;;
22531;SDS011;11432;46.924;7.114;2023-04-24T00:26:01;0.55;;;0.10;;
22531;SDS011;11432;46.924;7.114;2023-04-24T00:28:27;0.35;;;0.10;;
22531;SDS011;11432;46.924;7.114;2023-04-24T00:30:53;0.17;;;0.08;;
22531;SDS011;11432;46.924;7.114;2023-04-24T00:33:19;0.35;;;0.10;;
22531;SDS011;11432;46.924;7.114;2023-04-24T00:35:45;0.10;;;0.00;;
22531;SDS011;11432;46.924;7.114;2023-04-24T00:38:10;0.00;;;0.00;;
22531;SDS011;11432;46.924;7.114;2023-04-24T00:40:36;0.00;;;0.00;;
22531;SDS011;11432;46.924;7.114;2023-04-24T00:43:02;0.00;;;0.00;;
22531;SDS011;11432;46.924;7.114;2023-04-24T00:45:27;0.10;;;0.00;;
22531;SDS011;11432;46.924;7.114;2023-04-24T00:47:53;0.65;;;0.00;;
22531;SDS011;11432;46.924;7.114;2023-04-24T00:50:19;2.55;;;0.00;;
22531;SDS011;11432;46.924;7.114;2023-04-24T00:52:46;0.25;;;0.00;;
22531;SDS011;11432;46.924;7.114;2023-04-24T00:55:12;0.03;;;0.00;;
22531;SDS011;11432;46.924;7.114;2023-04-24T00:57:37;0.00;;;0.00;;
22531;SDS011;11432;46.924;7.114;2023-04-24T01:00:04;0.20;;;0.10;;
22531;SDS011;11432;46.924;7.114;2023-04-24T01:02:30;1.85;;;0.00;;
22531;SDS011;11432;46.924;7.114;2023-04-24T01:04:59;0.55;;;0.10;;
22531;SDS011;11432;46.924;7.114;2023-04-24T01:07:26;1.35;;;0.00;;
22531;SDS011;11432;46.924;7.114;2023-04-24T01:09:52;0.28;;;0.10;;
22531;SDS011;11432;46.924;7.114;2023-04-24T01:12:18;0.75;;;0.00;;
22531;SDS011;11432;46.924;7.114;2023-04-24T01:14:44;0.38;;;0.00;;
22531;SDS011;11432;46.924;7.114;2023-04-24T01:17:11;0.20;;;0.00;;
22531;SDS011;11432;46.924;7.114;2023-04-24T01:19:36;0.10;;;0.00;;
22531;SDS011;11432;46.924;7.114;2023-04-24T01:22:03;0.00;;;0.00;;
22531;SDS011;11432;46.924;7.114;2023-04-24T01:24:37;0.00;;;0.00;;
22531;SDS011;11432;46.924;7.114;2023-04-24T01:27:03;0.00;;;0.00;;
22531;SDS011;11432;46.924;7.114;2023-04-24T01:29:29;0.57;;;0.00;;
22531;SDS011;11432;46.924;7.114;2023-04-24T01:31:55;0.63;;;0.10;;
22531;SDS011;11432;46.924;7.114;2023-04-24T01:34:21;0.00;;;0.00;;
22531;SDS011;11432;46.924;7.114;2023-04-24T01:36:47;0.00;;;0.00;;
22531;SDS011;11432;46.924;7.114;2023-04-24T01:39:13;0.20;;;0.03;;
22531;SDS011;11432;46.924;7.114;2023-04-24T01:41:40;0.10;;;0.10;;
22531;SDS011;11432;46.924;7.114;2023-04-24T01:44:05;0.05;;;0.00;;
22531;SDS011;11432;46.924;7.114;2023-04-24T01:46:31;0.10;;;0.00;;
22531;SDS011;11432;46.924;7.114;2023-04-24T01:48:59;0.10;;;0.10;;
22531;SDS011;11432;46.924;7.114;2023-04-24T01:51:25;0.20;;;0.00;;
22531;SDS011;11432;46.924;7.114;2023-04-24T01:53:52;0.25;;;0.00;;
22531;SDS011;11432;46.924;7.114;2023-04-24T01:56:18;0.00;;;0.00;;
22531;SDS011;11432;46.924;7.114;2023-04-24T01:58:46;0.10;;;0.00;;
22531;SDS011;11432;46.924;7.114;2023-04-24T02:01:19;0.20;;;0.00;;
22531;SDS011;11432;46.924;7.114;2023-04-24T02:03:45;0.15;;;0.15;;
22531;SDS011;11432;46.924;7.114;2023-04-24T02:06:10;0.30;;;0.00;;
22531;SDS011;11432;46.924;7.114;2023-04-24T02:08:36;1.17;;;0.00;;
22531;SDS011;11432;46.924;7.114;2023-04-24T02:11:02;0.10;;;0.10;;
22531;SDS011;11432;46.924;7.114;2023-04-24T02:13:27;0.73;;;0.10;;
22531;SDS011;11432;46.924;7.114;2023-04-24T02:15:53;1.17;;;0.10;;
22531;SDS011;11432;46.924;7.114;2023-04-24T02:18:19;0.00;;;0.00;;
22531;SDS011;11432;46.924;7.114;2023-04-24T02:20:44;0.15;;;0.00;;
22531;SDS011;11432;46.924;7.114;2023-04-24T02:23:10;0.05;;;0.00;;
22531;SDS011;11432;46.924;7.114;2023-04-24T02:25:36;0.28;;;0.00;;
22531;SDS011;11432;46.924;7.114;2023-04-24T02:28:01;0.20;;;0.10;;
22531;SDS011;11432;46.924;7.114;2023-04-24T02:30:27;0.00;;;0.00;;
22531;SDS011;11432;46.924;7.114;2023-04-24T02:32:53;0.28;;;0.00;;
22531;SDS011;11432;46.924;7.114;2023-04-24T02:35:20;0.32;;;0.10;;
22531;SDS011;11432;46.924;7.114;2023-04-24T02:37:45;0.03;;;0.03;;
22531;SDS011;11432;46.924;7.114;2023-04-24T02:40:11;0.10;;;0.08;;
22531;SDS011;11432;46.924;7.114;2023-04-24T02:42:37;0.17;;;0.03;;
22531;SDS011;11432;46.924;7.114;2023-04-24T02:45:02;0.00;;;0.00;;
22531;SDS011;11432;46.924;7.114;2023-04-24T02:47:28;1.65;;;0.10;;
22531;SDS011;11432;46.924;7.114;2023-04-24T02:49:54;0.10;;;0.00;;
22531;SDS011;11432;46.924;7.114;2023-04-24T02:52:19;0.22;;;0.10;;
22531;SDS011;11432;46.924;7.114;2023-04-24T02:54:45;0.30;;;0.03;;
22531;SDS011;11432;46.924;7.114;2023-04-24T02:57:11;0.30;;;0.20;;
22531;SDS011;11432;46.924;7.114;2023-04-24T02:59:36;3.10;;;0.10;;
22531;SDS011;11432;46.924;7.114;2023-04-24T03:02:02;0.47;;;0.10;;
22531;SDS011;11432;46.924;7.114;2023-04-24T03:04:27;0.82;;;0.17;;
22531;SDS011;11432;46.924;7.114;2023-04-24T03:06:53;0.75;;;0.10;;
22531;SDS011;11432;46.924;7.114;2023-04-24T03:09:20;0.77;;;0.10;;
22531;SDS011;11432;46.924;7.114;2023-04-24T03:11:46;0.10;;;0.10;;
22531;SDS011;11432;46.924;7.114;2023-04-24T03:14:11;0.45;;;0.03;;
22531;SDS011;11432;46.924;7.114;2023-04-24T03:16:37;0.32;;;0.00;;
22531;SDS011;11432;46.924;7.114;2023-04-24T03:19:03;0.10;;;0.10;;
22531;SDS011;11432;46.924;7.114;2023-04-24T03:21:28;0.10;;;0.10;;
22531;SDS011;11432;46.924;7.114;2023-04-24T03:23:54;0.20;;;0.10;;
22531;SDS011;11432;46.924;7.114;2023-04-24T03:26:20;0.43;;;0.10;;
22531;SDS011;11432;46.924;7.114;2023-04-24T03:28:45;0.30;;;0.10;;
22531;SDS011;11432;46.924;7.114;2023-04-24T03:31:11;0.35;;;0.20;;
22531;SDS011;11432;46.924;7.114;2023-04-24T03:33:36;0.10;;;0.10;;
22531;SDS011;11432;46.924;7.114;2023-04-24T03:36:02;0.43;;;0.15;;
22531;SDS011;11432;46.924;7.114;2023-04-24T03:38:29;0.40;;;0.20;;
22531;SDS011;11432;46.924;7.114;2023-04-24T03:40:55;0.50;;;0.10;;
22531;SDS011;11432;46.924;7.114;2023-04-24T03:43:21;1.02;;;0.20;;
22531;SDS011;11432;46.924;7.114;2023-04-24T03:45:46;0.57;;;0.28;;
22531;SDS011;11432;46.924;7.114;2023-04-24T03:48:12;1.05;;;0.30;;
22531;SDS011;11432;46.924;7.114;2023-04-24T03:50:37;1.63;;;0.60;;
22531;SDS011;11432;46.924;7.114;2023-04-24T03:53:03;0.85;;;0.30;;
22531;SDS011;11432;46.924;7.114;2023-04-24T03:55:28;0.68;;;0.30;;
22531;SDS011;11432;46.924;7.114;2023-04-24T03:57:54;0.70;;;0.30;;
22531;SDS011;11432;46.924;7.114;2023-04-24T04:00:20;0.68;;;0.30;;
22531;SDS011;11432;46.924;7.114;2023-04-24T04:02:46;0.63;;;0.20;;
22531;SDS011;11432;46.924;7.114;2023-04-24T04:05:11;0.50;;;0.35;;
22531;SDS011;11432;46.924;7.114;2023-04-24T04:07:37;1.02;;;0.40;;
22531;SDS011;11432;46.924;7.114;2023-04-24T04:10:03;2.08;;;0.50;;
22531;SDS011;11432;46.924;7.114;2023-04-24T04:12:29;1.08;;;0.30;;
22531;SDS011;11432;46.924;7.114;2023-04-24T04:14:55;0.60;;;0.20;;
22531;SDS011;11432;46.924;7.114;2023-04-24T04:17:20;1.67;;;0.30;;
22531;SDS011;11432;46.924;7.114;2023-04-24T04:19:46;1.15;;;0.30;;
22531;SDS011;11432;46.924;7.114;2023-04-24T04:22:12;0.90;;;0.28;;
22531;SDS011;11432;46.924;7.114;2023-04-24T04:24:37;0.45;;;0.28;;
22531;SDS011;11432;46.924;7.114;2023-04-24T04:27:05;0.40;;;0.20;;
22531;SDS011;11432;46.924;7.114;2023-04-24T04:29:31;1.67;;;0.38;;
22531;SDS011;11432;46.924;7.114;2023-04-24T04:31:57;0.77;;;0.20;;
22531;SDS011;11432;46.924;7.114;2023-04-24T04:34:23;1.30;;;0.50;;
22531;SDS011;11432;46.924;7.114;2023-04-24T04:36:49;3.08;;;1.05;;
22531;SDS011;11432;46.924;7.114;2023-04-24T04:39:15;1.00;;;0.52;;
22531;SDS011;11432;46.924;7.114;2023-04-24T04:41:41;1.50;;;0.20;;
22531;SDS011;11432;46.924;7.114;2023-04-24T04:44:07;1.27;;;0.50;;
22531;SDS011;11432;46.924;7.114;2023-04-24T04:46:33;0.68;;;0.40;;
22531;SDS011;11432;46.924;7.114;2023-04-24T04:49:02;0.75;;;0.35;;
22531;SDS011;11432;46.924;7.114;2023-04-24T04:51:27;1.35;;;0.47;;
22531;SDS011;11432;46.924;7.114;2023-04-24T04:53:53;0.95;;;0.30;;
22531;SDS011;11432;46.924;7.114;2023-04-24T04:56:19;1.20;;;0.30;;
22531;SDS011;11432;46.924;7.114;2023-04-24T04:58:45;0.40;;;0.30;;
22531;SDS011;11432;46.924;7.114;2023-04-24T05:01:11;0.80;;;0.25;;
22531;SDS011;11432;46.924;7.114;2023-04-24T05:03:36;0.68;;;0.35;;
22531;SDS011;11432;46.924;7.114;2023-04-24T05:06:02;1.15;;;0.30;;
22531;SDS011;11432;46.924;7.114;2023-04-24T05:08:28;2.83;;;0.43;;
22531;SDS011;11432;46.924;7.114;2023-04-24T05:10:54;1.55;;;0.65;;
22531;SDS011;11432;46.924;7.114;2023-04-24T05:13:20;2.63;;;0.40;;
22531;SDS011;11432;46.924;7.114;2023-04-24T05:15:46;1.55;;;0.40;;
22531;SDS011;11432;46.924;7.114;2023-04-24T05:18:12;5.43;;;0.60;;
22531;SDS011;11432;46.924;7.114;2023-04-24T05:20:37;1.63;;;0.40;;
22531;SDS011;11432;46.924;7.114;2023-04-24T05:23:03;0.95;;;0.32;;
22531;SDS011;11432;46.924;7.114;2023-04-24T05:25:28;1.55;;;0.30;;
22531;SDS011;11432;46.924;7.114;2023-04-24T05:27:57;0.65;;;0.17;;
22531;SDS011;11432;46.924;7.114;2023-04-24T05:30:22;0.75;;;0.40;;
22531;SDS011;11432;46.924;7.114;2023-04-24T05:32:48;1.08;;;0.40;;
22531;SDS011;11432;46.924;7.114;2023-04-24T05:35:13;1.48;;;0.40;;
22531;SDS011;11432;46.924;7.114;2023-04-24T05:37:39;0.77;;;0.30;;
22531;SDS011;11432;46.924;7.114;2023-04-24T05:40:05;1.00;;;0.30;;
22531;SDS011;11432;46.924;7.114;2023-04-24T05:42:31;1.85;;;0.30;;
22531;SDS011;11432;46.924;7.114;2023-04-24T05:44:57;1.90;;;0.40;;
22531;SDS011;11432;46.924;7.114;2023-04-24T05:47:22;0.40;;;0.17;;
22531;SDS011;11432;46.924;7.114;2023-04-24T05:49:48;0.95;;;0.30;;
22531;SDS011;11432;46.924;7.114;2023-04-24T05:52:17;0.93;;;0.37;;
22531;SDS011;11432;46.924;7.114;2023-04-24T05:54:42;0.45;;;0.30;;
22531;SDS011;11432;46.924;7.114;2023-04-24T05:57:08;3.40;;;0.25;;
22531;SDS011;11432;46.924;7.114;2023-04-24T06:02:01;0.65;;;0.20;;
22531;SDS011;11432;46.924;7.114;2023-04-24T06:04:27;1.02;;;0.40;;
22531;SDS011;11432;46.924;7.114;2023-04-24T06:06:52;0.95;;;0.32;;
22531;SDS011;11432;46.924;7.114;2023-04-24T06:09:22;1.85;;;0.32;;
22531;SDS011;11432;46.924;7.114;2023-04-24T06:11:49;0.57;;;0.40;;
22531;SDS011;11432;46.924;7.114;2023-04-24T06:14:17;0.85;;;0.20;;
22531;SDS011;11432;46.924;7.114;2023-04-24T06:16:43;0.85;;;0.30;;
22531;SDS011;11432;46.924;7.114;2023-04-24T06:19:08;1.15;;;0.40;;
22531;SDS011;11432;46.924;7.114;2023-04-24T06:21:34;0.60;;;0.20;;
22531;SDS011;11432;46.924;7.114;2023-04-24T06:24:00;1.15;;;0.40;;
22531;SDS011;11432;46.924;7.114;2023-04-24T06:26:25;1.33;;;0.60;;
22531;SDS011;11432;46.924;7.114;2023-04-24T06:28:51;1.98;;;0.57;;
22531;SDS011;11432;46.924;7.114;2023-04-24T06:31:19;2.28;;;0.70;;
22531;SDS011;11432;46.924;7.114;2023-04-24T06:33:45;1.25;;;0.47;;
22531;SDS011;11432;46.924;7.114;2023-04-24T06:36:11;2.28;;;0.63;;
22531;SDS011;11432;46.924;7.114;2023-04-24T06:38:37;1.85;;;0.30;;
22531;SDS011;11432;46.924;7.114;2023-04-24T06:41:02;1.40;;;0.50;;
22531;SDS011;11432;46.924;7.114;2023-04-24T06:43:30;0.35;;;0.35;;
22531;SDS011;11432;46.924;7.114;2023-04-24T06:45:57;2.78;;;0.60;;
22531;SDS011;11432;46.924;7.114;2023-04-24T06:48:23;1.95;;;0.45;;
22531;SDS011;11432;46.924;7.114;2023-04-24T06:50:50;0.63;;;0.30;;
22531;SDS011;11432;46.924;7.114;2023-04-24T06:53:15;2.53;;;0.45;;
22531;SDS011;11432;46.924;7.114;2023-04-24T06:55:41;2.97;;;0.50;;
22531;SDS011;11432;46.924;7.114;2023-04-24T06:58:08;0.60;;;0.43;;
22531;SDS011;11432;46.924;7.114;2023-04-24T07:00:34;0.40;;;0.30;;
22531;SDS011;11432;46.924;7.114;2023-04-24T07:03:00;1.77;;;0.52;;
22531;SDS011;11432;46.924;7.114;2023-04-24T07:05:25;1.30;;;0.43;;
22531;SDS011;11432;46.924;7.114;2023-04-24T07:07:51;0.63;;;0.40;;
22531;SDS011;11432;46.924;7.114;2023-04-24T07:10:16;1.95;;;0.60;;
22531;SDS011;11432;46.924;7.114;2023-04-24T07:12:43;2.50;;;0.55;;
22531;SDS011;11432;46.924;7.114;2023-04-24T07:15:08;1.83;;;0.50;;
22531;SDS011;11432;46.924;7.114;2023-04-24T07:17:34;2.10;;;0.50;;
22531;SDS011;11432;46.924;7.114;2023-04-24T07:20:00;4.82;;;0.95;;
22531;SDS011;11432;46.924;7.114;2023-04-24T07:22:26;3.47;;;0.70;;
22531;SDS011;11432;46.924;7.114;2023-04-24T07:24:51;1.33;;;0.52;;
22531;SDS011;11432;46.924;7.114;2023-04-24T07:27:17;1.33;;;0.80;;
22531;SDS011;11432;46.924;7.114;2023-04-24T07:29:42;2.60;;;0.93;;
22531;SDS011;11432;46.924;7.114;2023-04-24T07:32:08;2.35;;;0.70;;
22531;SDS011;11432;46.924;7.114;2023-04-24T07:34:34;2.33;;;0.60;;
22531;SDS011;11432;46.924;7.114;2023-04-24T07:37:00;1.17;;;0.60;;
22531;SDS011;11432;46.924;7.114;2023-04-24T07:39:25;2.00;;;0.63;;
22531;SDS011;11432;46.924;7.114;2023-04-24T07:41:51;1.17;;;0.70;;
22531;SDS011;11432;46.924;7.114;2023-04-24T07:44:17;2.05;;;0.73;;
22531;SDS011;11432;46.924;7.114;2023-04-24T07:46:42;2.45;;;0.90;;
22531;SDS011;11432;46.924;7.114;2023-04-24T07:49:08;2.22;;;0.70;;
22531;SDS011;11432;46.924;7.114;2023-04-24T07:51:34;3.97;;;0.80;;
22531;SDS011;11432;46.924;7.114;2023-04-24T07:54:03;0.80;;;0.60;;
22531;SDS011;11432;46.924;7.114;2023-04-24T07:56:32;2.35;;;0.88;;
22531;SDS011;11432;46.924;7.114;2023-04-24T07:58:58;0.90;;;0.57;;
22531;SDS011;11432;46.924;7.114;2023-04-24T08:01:26;4.05;;;0.82;;
22531;SDS011;11432;46.924;7.114;2023-04-24T08:03:51;1.75;;;0.90;;
22531;SDS011;11432;46.924;7.114;2023-04-24T08:06:17;4.28;;;0.95;;
22531;SDS011;11432;46.924;7.114;2023-04-24T08:08:43;1.67;;;0.80;;
22531;SDS011;11432;46.924;7.114;2023-04-24T08:11:08;2.90;;;0.80;;
22531;SDS011;11432;46.924;7.114;2023-04-24T08:13:34;2.30;;;0.60;;
22531;SDS011;11432;46.924;7.114;2023-04-24T08:16:00;2.85;;;0.90;;
22531;SDS011;11432;46.924;7.114;2023-04-24T08:18:25;1.77;;;0.80;;
22531;SDS011;11432;46.924;7.114;2023-04-24T08:20:51;2.05;;;0.95;;
22531;SDS011;11432;46.924;7.114;2023-04-24T08:23:17;3.13;;;0.90;;
22531;SDS011;11432;46.924;7.114;2023-04-24T08:25:42;5.53;;;1.02;;
22531;SDS011;11432;46.924;7.114;2023-04-24T08:28:08;2.38;;;0.70;;
22531;SDS011;11432;46.924;7.114;2023-04-24T08:30:34;1.80;;;0.77;;
22531;SDS011;11432;46.924;7.114;2023-04-24T08:33:00;2.22;;;1.00;;
22531;SDS011;11432;46.924;7.114;2023-04-24T08:35:25;1.17;;;0.75;;
22531;SDS011;11432;46.924;7.114;2023-04-24T08:37:52;4.00;;;0.82;;
22531;SDS011;11432;46.924;7.114;2023-04-24T08:40:18;6.45;;;0.85;;
22531;SDS011;11432;46.924;7.114;2023-04-24T08:42:51;2.28;;;0.80;;
22531;SDS011;11432;46.924;7.114;2023-04-24T08:47:46;0.93;;;0.60;;
22531;SDS011;11432;46.924;7.114;2023-04-24T08:50:12;3.13;;;0.73;;
22531;SDS011;11432;46.924;7.114;2023-04-24T08:52:38;1.55;;;0.95;;
22531;SDS011;11432;46.924;7.114;2023-04-24T08:55:04;2.55;;;0.85;;
22531;SDS011;11432;46.924;7.114;2023-04-24T08:57:30;2.00;;;0.90;;
22531;SDS011;11432;46.924;7.114;2023-04-24T08:59:57;1.83;;;0.63;;
22531;SDS011;11432;46.924;7.114;2023-04-24T09:02:24;1.38;;;0.70;;
22531;SDS011;11432;46.924;7.114;2023-04-24T09:04:50;3.30;;;0.90;;
22531;SDS011;11432;46.924;7.114;2023-04-24T09:07:17;2.58;;;0.98;;
22531;SDS011;11432;46.924;7.114;2023-04-24T09:09:44;1.70;;;0.90;;
22531;SDS011;11432;46.924;7.114;2023-04-24T09:12:10;2.88;;;0.90;;
22531;SDS011;11432;46.924;7.114;2023-04-24T09:14:36;3.22;;;1.08;;
22531;SDS011;11432;46.924;7.114;2023-04-24T09:17:09;2.05;;;0.80;;
22531;SDS011;11432;46.924;7.114;2023-04-24T09:19:36;2.65;;;0.85;;
22531;SDS011;11432;46.924;7.114;2023-04-24T09:22:04;3.38;;;1.98;;
22531;SDS011;11432;46.924;7.114;2023-04-24T09:24:31;2.25;;;0.90;;
22531;SDS011;11432;46.924;7.114;2023-04-24T09:27:00;0.98;;;0.65;;
22531;SDS011;11432;46.924;7.114;2023-04-24T09:29:26;1.90;;;0.75;;
22531;SDS011;11432;46.924;7.114;2023-04-24T09:31:52;2.35;;;0.95;;
22531;SDS011;11432;46.924;7.114;2023-04-24T09:34:22;1.75;;;0.85;;
22531;SDS011;11432;46.924;7.114;2023-04-24T09:36:48;2.50;;;0.70;;
22531;SDS011;11432;46.924;7.114;2023-04-24T09:39:15;2.67;;;0.88;;
22531;SDS011;11432;46.924;7.114;2023-04-24T09:41:48;3.30;;;1.10;;
22531;SDS011;11432;46.924;7.114;2023-04-24T09:44:19;2.53;;;1.00;;
22531;SDS011;11432;46.924;7.114;2023-04-24T09:46:55;3.55;;;1.02;;
22531;SDS011;11432;46.924;7.114;2023-04-24T09:49:23;1.40;;;0.70;;
22531;SDS011;11432;46.924;7.114;2023-04-24T09:51:50;2.70;;;0.80;;
22531;SDS011;11432;46.924;7.114;2023-04-24T09:54:17;4.40;;;1.05;;
22531;SDS011;11432;46.924;7.114;2023-04-24T09:59:13;2.22;;;0.88;;
22531;SDS011;11432;46.924;7.114;2023-04-24T10:01:39;2.17;;;0.77;;
22531;SDS011;11432;46.924;7.114;2023-04-24T10:04:14;1.58;;;0.85;;
22531;SDS011;11432;46.924;7.114;2023-04-24T10:06:44;2.45;;;0.80;;
22531;SDS011;11432;46.924;7.114;2023-04-24T10:09:10;1.05;;;0.63;;
22531;SDS011;11432;46.924;7.114;2023-04-24T10:11:37;2.88;;;0.50;;
22531;SDS011;11432;46.924;7.114;2023-04-24T10:14:07;14.80;;;0.90;;
22531;SDS011;11432;46.924;7.114;2023-04-24T10:16:35;1.52;;;0.70;;
22531;SDS011;11432;46.924;7.114;2023-04-24T10:19:02;3.60;;;0.88;;
22531;SDS011;11432;46.924;7.114;2023-04-24T10:21:28;3.45;;;1.00;;
22531;SDS011;11432;46.924;7.114;2023-04-24T10:23:55;2.78;;;0.93;;
22531;SDS011;11432;46.924;7.114;2023-04-24T10:26:21;1.48;;;0.80;;
22531;SDS011;11432;46.924;7.114;2023-04-24T10:28:47;2.55;;;0.75;;
22531;SDS011;11432;46.924;7.114;2023-04-24T10:31:14;3.70;;;1.00;;
22531;SDS011;11432;46.924;7.114;2023-04-24T10:33:43;1.48;;;0.70;;
22531;SDS011;11432;46.924;7.114;2023-04-24T10:36:10;1.45;;;0.70;;
22531;SDS011;11432;46.924;7.114;2023-04-24T10:38:39;4.90;;;0.93;;
22531;SDS011;11432;46.924;7.114;2023-04-24T10:41:08;2.67;;;0.80;;
22531;SDS011;11432;46.924;7.114;2023-04-24T10:43:34;1.95;;;0.93;;
22531;SDS011;11432;46.924;7.114;2023-04-24T10:46:01;2.55;;;0.70;;
22531;SDS011;11432;46.924;7.114;2023-04-24T10:48:28;2.40;;;0.80;;
22531;SDS011;11432;46.924;7.114;2023-04-24T10:50:54;3.75;;;0.60;;
22531;SDS011;11432;46.924;7.114;2023-04-24T10:53:20;6.15;;;0.70;;
22531;SDS011;11432;46.924;7.114;2023-04-24T10:56:00;1.90;;;0.70;;
22531;SDS011;11432;46.924;7.114;2023-04-24T11:01:31;5.53;;;0.98;;
22531;SDS011;11432;46.924;7.114;2023-04-24T11:06:33;2.13;;;0.80;;
22531;SDS011;11432;46.924;7.114;2023-04-24T11:09:07;1.30;;;0.70;;
22531;SDS011;11432;46.924;7.114;2023-04-24T11:11:37;8.82;;;1.35;;
22531;SDS011;11432;46.924;7.114;2023-04-24T11:14:08;1.50;;;0.70;;
22531;SDS011;11432;46.924;7.114;2023-04-24T11:19:17;1.48;;;0.73;;
22531;SDS011;11432;46.924;7.114;2023-04-24T11:24:40;2.05;;;0.85;;
22531;SDS011;11432;46.924;7.114;2023-04-24T11:27:12;1.83;;;0.82;;
22531;SDS011;11432;46.924;7.114;2023-04-24T11:29:46;3.63;;;0.80;;
22531;SDS011;11432;46.924;7.114;2023-04-24T11:34:59;4.43;;;1.10;;
22531;SDS011;11432;46.924;7.114;2023-04-24T11:37:30;1.60;;;0.80;;
22531;SDS011;11432;46.924;7.114;2023-04-24T11:40:00;3.75;;;0.85;;
22531;SDS011;11432;46.924;7.114;2023-04-24T11:42:25;1.55;;;0.80;;
22531;SDS011;11432;46.924;7.114;2023-04-24T11:44:52;2.10;;;0.65;;
22531;SDS011;11432;46.924;7.114;2023-04-24T11:47:19;2.25;;;0.70;;
22531;SDS011;11432;46.924;7.114;2023-04-24T11:49:45;3.03;;;0.63;;
22531;SDS011;11432;46.924;7.114;2023-04-24T11:52:11;2.85;;;0.60;;
22531;SDS011;11432;46.924;7.114;2023-04-24T11:54:46;0.82;;;0.50;;
22531;SDS011;11432;46.924;7.114;2023-04-24T11:57:15;2.10;;;0.70;;
22531;SDS011;11432;46.924;7.114;2023-04-24T11:59:41;1.75;;;0.50;;
22531;SDS011;11432;46.924;7.114;2023-04-24T12:02:07;1.60;;;0.77;;
22531;SDS011;11432;46.924;7.114;2023-04-24T12:04:42;3.95;;;0.80;;
22531;SDS011;11432;46.924;7.114;2023-04-24T12:07:07;2.17;;;0.57;;
22531;SDS011;11432;46.924;7.114;2023-04-24T12:10:07;3.25;;;0.73;;
22531;SDS011;11432;46.924;7.114;2023-04-24T12:12:26;1.40;;;0.47;;
22531;SDS011;11432;46.924;7.114;2023-04-24T12:14:53;1.73;;;0.85;;
22531;SDS011;11432;46.924;7.114;2023-04-24T12:19:59;1.20;;;0.60;;
22531;SDS011;11432;46.924;7.114;2023-04-24T12:22:27;0.22;;;0.22;;
22531;SDS011;11432;46.924;7.114;2023-04-24T12:25:03;2.25;;;0.82;;
22531;SDS011;11432;46.924;7.114;2023-04-24T12:27:33;1.13;;;0.60;;
22531;SDS011;11432;46.924;7.114;2023-04-24T12:29:59;1.23;;;0.50;;
22531;SDS011;11432;46.924;7.114;2023-04-24T12:32:26;1.48;;;0.55;;
22531;SDS011;11432;46.924;7.114;2023-04-24T12:34:52;1.08;;;0.57;;
22531;SDS011;11432;46.924;7.114;2023-04-24T12:37:19;1.13;;;0.60;;
22531;SDS011;11432;46.924;7.114;2023-04-24T12:42:31;3.10;;;0.70;;
22531;SDS011;11432;46.924;7.114;2023-04-24T12:44:58;1.42;;;0.52;;
22531;SDS011;11432;46.924;7.114;2023-04-24T12:47:25;2.33;;;0.45;;
22531;SDS011;11432;46.924;7.114;2023-04-24T12:49:51;1.35;;;0.40;;
22531;SDS011;11432;46.924;7.114;2023-04-24T12:52:20;1.42;;;0.50;;
22531;SDS011;11432;46.924;7.114;2023-04-24T12:54:52;1.15;;;0.70;;
22531;SDS011;11432;46.924;7.114;2023-04-24T12:57:18;1.45;;;0.43;;
22531;SDS011;11432;46.924;7.114;2023-04-24T12:59:44;1.30;;;0.60;;
22531;SDS011;11432;46.924;7.114;2023-04-24T13:02:10;0.90;;;0.45;;
22531;SDS011;11432;46.924;7.114;2023-04-24T13:04:36;1.80;;;0.75;;
22531;SDS011;11432;46.924;7.114;2023-04-24T13:07:02;0.63;;;0.40;;
22531;SDS011;11432;46.924;7.114;2023-04-24T13:09:27;2.65;;;0.40;;
22531;SDS011;11432;46.924;7.114;2023-04-24T13:11:53;1.70;;;0.73;;
22531;SDS011;11432;46.924;7.114;2023-04-24T13:14:19;2.22;;;0.70;;
22531;SDS011;11432;46.924;7.114;2023-04-24T13:16:45;1.58;;;0.77;;
22531;SDS011;11432;46.924;7.114;2023-04-24T13:19:10;1.73;;;0.90;;
22531;SDS011;11432;46.924;7.114;2023-04-24T13:21:36;0.65;;;0.50;;
22531;SDS011;11432;46.924;7.114;2023-04-24T13:24:02;1.92;;;0.80;;
22531;SDS011;11432;46.924;7.114;2023-04-24T13:26:29;3.80;;;1.00;;
22531;SDS011;11432;46.924;7.114;2023-04-24T13:28:55;1.45;;;0.70;;
22531;SDS011;11432;46.924;7.114;2023-04-24T13:31:21;3.22;;;0.93;;
22531;SDS011;11432;46.924;7.114;2023-04-24T13:33:46;1.92;;;0.80;;
22531;SDS011;11432;46.924;7.114;2023-04-24T13:36:12;1.17;;;0.77;;
22531;SDS011;11432;46.924;7.114;2023-04-24T13:38:38;1.98;;;0.70;;
22531;SDS011;11432;46.924;7.114;2023-04-24T13:41:04;0.95;;;0.70;;
22531;SDS011;11432;46.924;7.114;2023-04-24T13:43:29;1.98;;;0.80;;
22531;SDS011;11432;46.924;7.114;2023-04-24T13:45:55;1.92;;;1.00;;
22531;SDS011;11432;46.924;7.114;2023-04-24T13:48:21;1.85;;;0.70;;
22531;SDS011;11432;46.924;7.114;2023-04-24T13:50:46;2.50;;;0.80;;
22531;SDS011;11432;46.924;7.114;2023-04-24T13:53:14;2.00;;;0.70;;
22531;SDS011;11432;46.924;7.114;2023-04-24T13:55:40;3.17;;;1.02;;
22531;SDS011;11432;46.924;7.114;2023-04-24T13:58:06;2.83;;;1.00;;
22531;SDS011;11432;46.924;7.114;2023-04-24T14:00:32;3.28;;;0.75;;
22531;SDS011;11432;46.924;7.114;2023-04-24T14:02:58;1.45;;;0.73;;
22531;SDS011;11432;46.924;7.114;2023-04-24T14:05:24;1.27;;;0.60;;
22531;SDS011;11432;46.924;7.114;2023-04-24T14:07:50;1.75;;;0.85;;
22531;SDS011;11432;46.924;7.114;2023-04-24T14:10:16;0.98;;;0.70;;
22531;SDS011;11432;46.924;7.114;2023-04-24T14:12:41;1.80;;;0.75;;
22531;SDS011;11432;46.924;7.114;2023-04-24T14:15:07;1.40;;;0.60;;
22531;SDS011;11432;46.924;7.114;2023-04-24T14:17:34;2.50;;;0.65;;
22531;SDS011;11432;46.924;7.114;2023-04-24T14:19:59;2.42;;;0.90;;
22531;SDS011;11432;46.924;7.114;2023-04-24T14:22:25;1.23;;;0.70;;
22531;SDS011;11432;46.924;7.114;2023-04-24T14:24:51;2.40;;;0.80;;
22531;SDS011;11432;46.924;7.114;2023-04-24T14:27:17;1.95;;;0.70;;
22531;SDS011;11432;46.924;7.114;2023-04-24T14:29:42;3.58;;;0.90;;
22531;SDS011;11432;46.924;7.114;2023-04-24T14:32:10;1.58;;;0.90;;
22531;SDS011;11432;46.924;7.114;2023-04-24T14:34:35;2.88;;;0.93;;
22531;SDS011;11432;46.924;7.114;2023-04-24T14:37:01;1.42;;;0.68;;
22531;SDS011;11432;46.924;7.114;2023-04-24T14:39:27;1.10;;;0.60;;
22531;SDS011;11432;46.924;7.114;2023-04-24T14:41:53;0.90;;;0.70;;
22531;SDS011;11432;46.924;7.114;2023-04-24T14:44:19;2.50;;;0.80;;
22531;SDS011;11432;46.924;7.114;2023-04-24T14:46:44;4.03;;;0.80;;
22531;SDS011;11432;46.924;7.114;2023-04-24T14:49:10;3.63;;;1.00;;
22531;SDS011;11432;46.924;7.114;2023-04-24T14:51:37;4.97;;;1.10;;
22531;SDS011;11432;46.924;7.114;2023-04-24T14:54:03;3.30;;;0.90;;
22531;SDS011;11432;46.924;7.114;2023-04-24T14:56:28;1.23;;;0.45;;
22531;SDS011;11432;46.924;7.114;2023-04-24T14:58:54;2.97;;;0.70;;
22531;SDS011;11432;46.924;7.114;2023-04-24T15:01:20;1.70;;;0.82;;
22531;SDS011;11432;46.924;7.114;2023-04-24T15:03:46;3.28;;;0.88;;
22531;SDS011;11432;46.924;7.114;2023-04-24T15:06:12;2.03;;;0.80;;
22531;SDS011;11432;46.924;7.114;2023-04-24T15:08:37;3.92;;;0.77;;
22531;SDS011;11432;46.924;7.114;2023-04-24T15:11:03;1.55;;;0.98;;